Time;durP1;ratioP1;P1;durP2;ratioP2;P2;SDS_P1;SDS_P2;PMS_P1;PMS_P2;Temp;Humidity;BMP_temperature;BMP_pressure;BME280_temperature;BME280_humidity;BME280_pressure;Samples;Min_cycle;Max_cycle;Signal;HPM_P1;HPM_P2
2022/07/15 00:01:28;;;;;;;;;;;;;;;;;;4866471;29;19978;-87
2022/07/15 00:03:54;;;;;;;;;;;;;;;;;;4864683;29;19942;-87
2022/07/15 00:06:20;;;;;;;;;;;;;;;;;;4865740;29;19933;-87
2022/07/15 00:08:46;;;;;;;;;;;;;;;;;;4869701;29;20771;-88
2022/07/15 00:11:12;;;;;;;;;;;;;;;;;;4850439;29;19926;-87
2022/07/15 00:13:38;;;;;;;;;;;;;;;;;;4866937;29;19997;-87
2022/07/15 00:16:04;;;;;;;;;;;;;;;;;;4846867;29;19931;-87
2022/07/15 00:18:30;;;;;;;;;;;;;;;;;;4850393;29;19989;-87
2022/07/15 00:20:56;;;;;;;;;;;;;;;;;;4843124;29;19931;-87
2022/07/15 00:23:22;;;;;;;;;;;;;;;;;;4845893;29;19998;-88
2022/07/15 00:25:48;;;;;;;;;;;;;;;;;;4846949;29;19927;-88
2022/07/15 00:28:14;;;;;;;;;;;;;;;;;;4857352;29;20365;-87
2022/07/15 00:30:40;;;;;;;;;;;;;;;;;;4889517;29;19954;-87
2022/07/15 00:33:06;;;;;;;;;;;;;;;;;;4866859;29;20069;-87
2022/07/15 00:35:32;;;;;;;;;;;;;;;;;;4878824;29;20010;-87
2022/07/15 00:37:58;;;;;;;;;;;;;;;;;;4869945;29;19943;-88
2022/07/15 00:40:24;;;;;;;;;;;;;;;;;;4872599;29;19927;-87
2022/07/15 00:42:50;;;;;;;;;;;;;;;;;;4857449;29;20402;-87
2022/07/15 00:45:16;;;;;;;;;;;;;;;;;;4872527;29;20322;-87
2022/07/15 00:47:42;;;;;;;;;;;;;;;;;;4875445;29;19931;-87
2022/07/15 00:50:07;;;;;;;;;;;;;;;;;;4850838;29;19942;-88
2022/07/15 00:52:34;;;;;;;;;;;;;;;;;;4856738;29;20322;-88
2022/07/15 00:55:00;;;;;;;;;;;;;;;;;;4865075;29;19931;-87
2022/07/15 00:57:26;;;;;;;;;;;;;;;;;;4873692;29;20009;-88
2022/07/15 00:59:52;;;;;;;;;;;;;;;;;;4885646;29;19926;-88
2022/07/15 01:02:18;;;;;;;;;;;;;;;;;;4849172;29;19973;-87
2022/07/15 01:04:44;;;;;;;;;;;;;;;;;;4864883;29;19982;-88
2022/07/15 01:07:10;;;;;;;;;;;;;;;;;;4850090;29;19935;-87
2022/07/15 01:09:36;;;;;;;;;;;;;;;;;;4851572;29;19927;-87
2022/07/15 01:12:01;;;;;;;;;;;;;;;;;;4847957;29;19927;-87
2022/07/15 01:14:27;;;;;;;;;;;;;;;;;;4866605;29;19930;-87
2022/07/15 01:16:54;;;;;;;;;;;;;;;;;;4843306;29;20029;-87
2022/07/15 01:19:20;;;;;;;;;;;;;;;;;;4855446;29;19962;-87
2022/07/15 01:21:46;;;;;;;;;;;;;;;;;;4868735;29;20431;-88
2022/07/15 01:24:12;;;;;;;;;;;;;;;;;;4858633;29;19938;-87
2022/07/15 01:26:38;;;;;;;;;;;;;;;;;;4854324;29;19931;-87
2022/07/15 01:29:04;;;;;;;;;;;;;;;;;;4862182;29;19933;-88
2022/07/15 01:31:30;;;;;;;;;;;;;;;;;;4869570;29;20517;-87
2022/07/15 01:33:56;;;;;;;;;;;;;;;;;;4845634;29;19938;-87
2022/07/15 01:36:22;;;;;;;;;;;;;;;;;;4872446;29;20397;-87
2022/07/15 01:38:48;;;;;;;;;;;;;;;;;;4862357;29;19987;-88
2022/07/15 01:41:14;;;;;;;;;;;;;;;;;;4852524;29;19930;-87
2022/07/15 01:43:40;;;;;;;;;;;;;;;;;;4867960;29;19931;-87
2022/07/15 01:46:06;;;;;;;;;;;;;;;;;;4863829;29;19942;-86
2022/07/15 01:51:16;;;;;;;;;;;;;;;;;;4864990;29;19931;-87
2022/07/15 01:53:42;;;;;;;;;;;;;;;;;;4864526;29;19958;-86
2022/07/15 01:56:08;;;;;;;;;;;;;;;;;;4841967;29;19927;-87
2022/07/15 01:58:34;;;;;;;;;;;;;;;;;;4847188;29;19931;-87
2022/07/15 02:01:00;;;;;;;;;;;;;;;;;;4862319;29;19927;-87
2022/07/15 02:03:26;;;;;;;;;;;;;;;;;;4852264;29;19942;-86
2022/07/15 02:05:52;;;;;;;;;;;;;;;;;;4864890;29;19942;-87
2022/07/15 02:08:18;;;;;;;;;;;;;;;;;;4868022;29;19931;-87
2022/07/15 02:10:44;;;;;;;;;;;;;;;;;;4854994;29;19942;-86
2022/07/15 02:13:13;;;;;;;;;;;;;;;;;;4862504;29;19938;-87
2022/07/15 02:15:39;;;;;;;;;;;;;;;;;;4855106;29;20011;-87
2022/07/15 02:18:05;;;;;;;;;;;;;;;;;;4845995;29;21604;-87
2022/07/15 02:20:31;;;;;;;;;;;;;;;;;;4869003;29;19934;-87
2022/07/15 02:22:57;;;;;;;;;;;;;;;;;;4855282;29;19931;-87
2022/07/15 02:25:25;;;;;;;;;;;;;;;;;;4871745;29;19981;-87
2022/07/15 02:27:52;;;;;;;;;;;;;;;;;;4869764;29;19927;-87
2022/07/15 02:30:18;;;;;;;;;;;;;;;;;;4869475;29;19967;-87
2022/07/15 02:32:43;;;;;;;;;;;;;;;;;;4870792;29;20013;-87
2022/07/15 02:35:11;;;;;;;;;;;;;;;;;;4854114;29;19927;-87
2022/07/15 02:37:37;;;;;;;;;;;;;;;;;;4873053;29;20393;-87
2022/07/15 02:40:02;;;;;;;;;;;;;;;;;;4867140;29;19931;-87
2022/07/15 02:42:28;;;;;;;;;;;;;;;;;;4872331;29;19923;-87
2022/07/15 02:44:54;;;;;;;;;;;;;;;;;;4867820;29;19942;-87
2022/07/15 02:47:20;;;;;;;;;;;;;;;;;;4877472;29;20007;-87
2022/07/15 02:49:46;;;;;;;;;;;;;;;;;;4872468;29;19934;-87
2022/07/15 02:52:12;;;;;;;;;;;;;;;;;;4863489;29;20876;-87
2022/07/15 02:54:38;;;;;;;;;;;;;;;;;;4865914;29;19961;-87
2022/07/15 02:57:04;;;;;;;;;;;;;;;;;;4847759;29;19927;-87
2022/07/15 02:59:30;;;;;;;;;;;;;;;;;;4868887;29;19938;-87
2022/07/15 03:01:56;;;;;;;;;;;;;;;;;;4860602;29;19950;-87
2022/07/15 03:04:22;;;;;;;;;;;;;;;;;;4850958;29;19935;-87
2022/07/15 03:06:48;;;;;;;;;;;;;;;;;;4856855;29;19931;-87
2022/07/15 03:09:14;;;;;;;;;;;;;;;;;;4868261;29;19950;-86
2022/07/15 03:11:40;;;;;;;;;;;;;;;;;;4861059;29;19935;-87
2022/07/15 03:14:06;;;;;;;;;;;;;;;;;;4858570;29;20008;-87
2022/07/15 03:16:33;;;;;;;;;;;;;;;;;;4861260;29;19957;-87
2022/07/15 03:18:59;;;;;;;;;;;;;;;;;;4860447;29;19949;-87
2022/07/15 03:21:25;;;;;;;;;;;;;;;;;;4860716;29;19962;-87
2022/07/15 03:23:51;;;;;;;;;;;;;;;;;;4861138;29;19930;-87
2022/07/15 03:26:17;;;;;;;;;;;;;;;;;;4848452;29;20375;-87
2022/07/15 03:28:44;;;;;;;;;;;;;;;;;;4863208;29;19951;-87
2022/07/15 03:31:10;;;;;;;;;;;;;;;;;;4839632;29;19927;-87
2022/07/15 03:33:35;;;;;;;;;;;;;;;;;;4863570;29;20405;-87
2022/07/15 03:36:01;;;;;;;;;;;;;;;;;;4859544;29;19998;-87
2022/07/15 03:38:27;;;;;;;;;;;;;;;;;;4863966;29;20298;-87
2022/07/15 03:40:54;;;;;;;;;;;;;;;;;;4844504;29;20045;-87
2022/07/15 03:43:19;;;;;;;;;;;;;;;;;;4847067;29;19933;-87
2022/07/15 03:45:45;;;;;;;;;;;;;;;;;;4859690;29;20298;-87
2022/07/15 03:48:11;;;;;;;;;;;;;;;;;;4846545;29;20224;-87
2022/07/15 03:50:37;;;;;;;;;;;;;;;;;;4867295;29;19982;-87
2022/07/15 03:53:03;;;;;;;;;;;;;;;;;;4859954;29;19928;-87
2022/07/15 03:55:30;;;;;;;;;;;;;;;;;;4878575;29;19927;-86
2022/07/15 03:57:56;;;;;;;;;;;;;;;;;;4871583;29;20006;-86
2022/07/15 04:00:22;;;;;;;;;;;;;;;;;;4849555;29;19931;-86
2022/07/15 04:02:48;;;;;;;;;;;;;;;;;;4844791;28;20066;-87
2022/07/15 04:05:14;;;;;;;;;;;;;;;;;;4851297;29;20314;-87
2022/07/15 04:07:40;;;;;;;;;;;;;;;;;;4852968;29;19955;-87
2022/07/15 04:10:06;;;;;;;;;;;;;;;;;;4861531;29;19993;-86
2022/07/15 04:12:32;;;;;;;;;;;;;;;;;;4866737;29;19993;-87
2022/07/15 04:14:58;;;;;;;;;;;;;;;;;;4857748;29;22165;-87
2022/07/15 04:17:24;;;;;;;;;;;;;;;;;;4866873;29;19973;-86
2022/07/15 04:19:50;;;;;;;;;;;;;;;;;;4850619;29;20294;-87
2022/07/15 04:22:16;;;;;;;;;;;;;;;;;;4851982;29;20098;-86
2022/07/15 04:24:42;;;;;;;;;;;;;;;;;;4854561;29;20390;-86
2022/07/15 04:27:08;;;;;;;;;;;;;;;;;;4866012;29;19938;-87
2022/07/15 04:29:35;;;;;;;;;;;;;;;;;;4872692;29;19931;-87
2022/07/15 04:32:01;;;;;;;;;;;;;;;;;;4850404;29;19985;-87
2022/07/15 04:34:27;;;;;;;;;;;;;;;;;;4853433;29;20386;-87
2022/07/15 04:36:53;;;;;;;;;;;;;;;;;;4867454;29;19931;-87
2022/07/15 04:39:19;;;;;;;;;;;;;;;;;;4871172;29;19934;-87
2022/07/15 04:41:45;;;;;;;;;;;;;;;;;;4871295;29;19976;-87
2022/07/15 04:44:11;;;;;;;;;;;;;;;;;;4862980;29;19933;-87
2022/07/15 04:46:37;;;;;;;;;;;;;;;;;;4876995;29;19927;-87
2022/07/15 04:51:48;;;;;;;;;;;;;;;;;;4872695;29;19923;-87
2022/07/15 04:54:14;;;;;;;;;;;;;;;;;;4881744;29;19938;-87
2022/07/15 04:56:40;;;;;;;;;;;;;;;;;;4873648;29;19935;-87
2022/07/15 04:59:06;;;;;;;;;;;;;;;;;;4869333;29;20492;-87
2022/07/15 05:01:32;;;;;;;;;;;;;;;;;;4870421;29;20746;-87
2022/07/15 05:03:59;;;;;;;;;;;;;;;;;;4852842;29;19950;-87
2022/07/15 05:06:24;;;;;;;;;;;;;;;;;;4892321;29;20038;-87
2022/07/15 05:08:50;;;;;;;;;;;;;;;;;;4865038;29;19934;-87
2022/07/15 05:11:16;;;;;;;;;;;;;;;;;;4873143;29;19934;-87
2022/07/15 05:13:42;;;;;;;;;;;;;;;;;;4869780;29;19986;-87
2022/07/15 05:16:08;;;;;;;;;;;;;;;;;;4863409;29;20026;-87
2022/07/15 05:18:35;;;;;;;;;;;;;;;;;;4870790;29;19938;-87
2022/07/15 05:21:01;;;;;;;;;;;;;;;;;;4853351;29;19971;-87
2022/07/15 05:23:27;;;;;;;;;;;;;;;;;;4869423;29;20386;-87
2022/07/15 05:25:53;;;;;;;;;;;;;;;;;;4865049;29;20006;-87
2022/07/15 05:28:19;;;;;;;;;;;;;;;;;;4871159;29;19938;-87
2022/07/15 05:30:45;;;;;;;;;;;;;;;;;;4868169;29;19929;-87
2022/07/15 05:33:13;;;;;;;;;;;;;;;;;;4869693;29;20276;-87
2022/07/15 05:35:39;;;;;;;;;;;;;;;;;;4869206;29;19930;-87
2022/07/15 05:38:05;;;;;;;;;;;;;;;;;;4851071;29;21702;-87
2022/07/15 05:40:31;;;;;;;;;;;;;;;;;;4868418;29;19931;-87
2022/07/15 05:42:58;;;;;;;;;;;;;;;;;;4864564;29;19953;-87
2022/07/15 05:45:24;;;;;;;;;;;;;;;;;;4855813;29;20041;-87
2022/07/15 05:47:50;;;;;;;;;;;;;;;;;;4846668;29;19931;-87
2022/07/15 05:50:16;;;;;;;;;;;;;;;;;;4865225;29;19982;-87
2022/07/15 05:52:43;;;;;;;;;;;;;;;;;;4853542;29;20294;-87
2022/07/15 05:55:09;;;;;;;;;;;;;;;;;;4866263;29;20453;-87
2022/07/15 05:57:35;;;;;;;;;;;;;;;;;;4872034;29;20389;-86
2022/07/15 06:00:01;;;;;;;;;;;;;;;;;;4850832;29;19978;-87
2022/07/15 06:02:27;;;;;;;;;;;;;;;;;;4887516;29;19927;-87
2022/07/15 06:04:53;;;;;;;;;;;;;;;;;;4866262;29;19970;-87
2022/07/15 06:07:19;;;;;;;;;;;;;;;;;;4885467;29;19931;-87
2022/07/15 06:09:50;;;;;;;;;;;;;;;;;;4886654;29;19994;-87
2022/07/15 06:12:16;;;;;;;;;;;;;;;;;;4852707;29;19938;-87
2022/07/15 06:14:42;;;;;;;;;;;;;;;;;;4857185;29;19923;-87
2022/07/15 06:17:08;;;;;;;;;;;;;;;;;;4858364;29;19930;-87
2022/07/15 06:19:34;;;;;;;;;;;;;;;;;;4861936;29;20374;-87
2022/07/15 06:22:00;;;;;;;;;;;;;;;;;;4873788;29;19927;-87
2022/07/15 06:24:26;;;;;;;;;;;;;;;;;;4863349;29;19940;-87
2022/07/15 06:26:52;;;;;;;;;;;;;;;;;;4867332;29;20971;-87
2022/07/15 06:29:17;;;;;;;;;;;;;;;;;;4858789;29;19931;-87
2022/07/15 06:31:43;;;;;;;;;;;;;;;;;;4872530;29;20017;-87
2022/07/15 06:34:09;;;;;;;;;;;;;;;;;;4852889;29;19934;-87
2022/07/15 06:36:35;;;;;;;;;;;;;;;;;;4858555;29;19927;-88
2022/07/15 06:39:01;;;;;;;;;;;;;;;;;;4868886;29;20400;-87
2022/07/15 06:41:27;;;;;;;;;;;;;;;;;;4869923;29;20574;-86
2022/07/15 06:43:53;;;;;;;;;;;;;;;;;;4866686;29;19952;-87
2022/07/15 06:46:20;;;;;;;;;;;;;;;;;;4856980;29;20391;-87
2022/07/15 06:48:46;;;;;;;;;;;;;;;;;;4852643;29;19931;-87
2022/07/15 06:51:11;;;;;;;;;;;;;;;;;;4868637;29;19931;-88
2022/07/15 06:53:37;;;;;;;;;;;;;;;;;;4859162;29;19926;-87
2022/07/15 06:56:03;;;;;;;;;;;;;;;;;;4851844;29;19926;-87
2022/07/15 06:58:29;;;;;;;;;;;;;;;;;;4854431;29;20011;-87
2022/07/15 07:00:55;;;;;;;;;;;;;;;;;;4853149;29;20224;-88
2022/07/15 07:03:21;;;;;;;;;;;;;;;;;;4865034;29;19956;-88
2022/07/15 07:05:47;;;;;;;;;;;;;;;;;;4863628;29;20201;-88
2022/07/15 07:08:13;;;;;;;;;;;;;;;;;;4866072;29;19958;-87
2022/07/15 07:10:39;;;;;;;;;;;;;;;;;;4868044;29;19927;-87
2022/07/15 07:13:05;;;;;;;;;;;;;;;;;;4863807;29;22025;-87
2022/07/15 07:15:31;;;;;;;;;;;;;;;;;;4866848;29;20030;-87
2022/07/15 07:17:57;;;;;;;;;;;;;;;;;;4875263;29;19923;-87
2022/07/15 07:20:23;;;;;;;;;;;;;;;;;;4874985;29;19931;-88
2022/07/15 07:22:49;;;;;;;;;;;;;;;;;;4857653;29;19941;-87
2022/07/15 07:25:15;;;;;;;;;;;;;;;;;;4863323;29;20017;-88
2022/07/15 07:27:41;;;;;;;;;;;;;;;;;;4861324;29;19934;-87
2022/07/15 07:30:07;;;;;;;;;;;;;;;;;;4859939;29;19993;-86
2022/07/15 07:32:33;;;;;;;;;;;;;;;;;;4863520;29;19928;-87
2022/07/15 07:34:59;;;;;;;;;;;;;;;;;;4873360;29;19934;-87
2022/07/15 07:37:26;;;;;;;;;;;;;;;;;;4880797;29;20101;-89
2022/07/15 07:39:52;;;;;;;;;;;;;;;;;;4859719;29;20401;-88
2022/07/15 07:42:19;;;;;;;;;;;;;;;;;;4878552;29;20054;-89
2022/07/15 07:44:45;;;;;;;;;;;;;;;;;;4862431;29;19931;-88
2022/07/15 07:47:11;;;;;;;;;;;;;;;;;;4859748;29;19924;-87
2022/07/15 07:49:37;;;;;;;;;;;;;;;;;;4892098;29;19934;-88
2022/07/15 07:52:03;;;;;;;;;;;;;;;;;;4874798;29;19927;-87
2022/07/15 07:54:29;;;;;;;;;;;;;;;;;;4873763;29;19923;-88
2022/07/15 07:56:55;;;;;;;;;;;;;;;;;;4870738;29;19931;-87
2022/07/15 07:59:21;;;;;;;;;;;;;;;;;;4893435;29;19923;-87
2022/07/15 08:01:49;;;;;;;;;;;;;;;;;;4891791;29;20013;-88
2022/07/15 08:04:18;;;;;;;;;;;;;;;;;;4894897;28;19934;-87
2022/07/15 08:06:45;;;;;;;;;;;;;;;;;;4898418;29;20002;-88
2022/07/15 08:09:11;;;;;;;;;;;;;;;;;;4893378;29;20736;-88
2022/07/15 08:11:37;;;;;;;;;;;;;;;;;;4899218;29;19950;-88
2022/07/15 08:14:03;;;;;;;;;;;;;;;;;;4888342;29;20366;-87
2022/07/15 08:16:29;;;;;;;;;;;;;;;;;;4862729;29;19959;-87
2022/07/15 08:18:55;;;;;;;;;;;;;;;;;;4875150;29;19931;-87
2022/07/15 08:21:21;;;;;;;;;;;;;;;;;;4875035;29;20087;-87
2022/07/15 08:23:48;;;;;;;;;;;;;;;;;;4875346;29;19962;-88
2022/07/15 08:26:18;;;;;;;;;;;;;;;;;;4862060;29;20949;-88
2022/07/15 08:28:45;;;;;;;;;;;;;;;;;;4865641;29;20349;-87
2022/07/15 08:31:13;;;;;;;;;;;;;;;;;;4870498;29;21627;-87
2022/07/15 08:33:39;;;;;;;;;;;;;;;;;;4901237;29;19927;-88
2022/07/15 08:36:05;;;;;;;;;;;;;;;;;;4891984;29;22008;-88
2022/07/15 08:38:34;;;;;;;;;;;;;;;;;;4896370;29;19923;-88
2022/07/15 08:41:00;;;;;;;;;;;;;;;;;;4892104;29;19934;-87
2022/07/15 08:43:29;;;;;;;;;;;;;;;;;;4863995;29;19950;-87
2022/07/15 08:45:55;;;;;;;;;;;;;;;;;;4886072;29;19927;-88
2022/07/15 08:48:21;;;;;;;;;;;;;;;;;;4880609;29;20299;-87
2022/07/15 08:50:47;;;;;;;;;;;;;;;;;;4861214;29;19926;-88
2022/07/15 08:53:13;;;;;;;;;;;;;;;;;;4877880;29;19927;-88
2022/07/15 08:55:39;;;;;;;;;;;;;;;;;;4879720;29;19938;-86
2022/07/15 08:58:09;;;;;;;;;;;;;;;;;;4876660;29;19927;-88
2022/07/15 09:00:35;;;;;;;;;;;;;;;;;;4876403;29;20020;-87
2022/07/15 09:03:09;;;;;;;;;;;;;;;;;;4855332;29;20378;-89
2022/07/15 09:05:35;;;;;;;;;;;;;;;;;;4861388;29;19936;-88
2022/07/15 09:08:02;;;;;;;;;;;;;;;;;;4877138;29;19928;-88
2022/07/15 09:10:28;;;;;;;;;;;;;;;;;;4884570;29;19927;-88
2022/07/15 09:12:53;;;;;;;;;;;;;;;;;;4866920;29;20414;-88
2022/07/15 09:15:19;;;;;;;;;;;;;;;;;;4868733;29;20616;-87
2022/07/15 09:17:54;;;;;;;;;;;;;;;;;;4865659;29;19938;-88
2022/07/15 09:20:20;;;;;;;;;;;;;;;;;;4867056;29;20282;-87
2022/07/15 09:22:46;;;;;;;;;;;;;;;;;;4862601;29;19927;-88
2022/07/15 09:25:12;;;;;;;;;;;;;;;;;;4868625;29;20010;-87
2022/07/15 09:27:38;;;;;;;;;;;;;;;;;;4873433;29;20836;-86
2022/07/15 09:38:18;;;;;;;;;;;;;;;;;;4882848;29;19931;-86
2022/07/15 09:40:45;;;;;;;;;;;;;;;;;;4876312;29;19931;-86
2022/07/15 09:43:11;;;;;;;;;;;;;;;;;;4865451;29;19966;-85
2022/07/15 09:45:38;;;;;;;;;;;;;;;;;;4877941;29;20084;-86
2022/07/15 09:48:04;;;;;;;;;;;;;;;;;;4885581;29;19962;-86
2022/07/15 09:50:30;;;;;;;;;;;;;;;;;;4880748;29;19935;-85
2022/07/15 09:52:56;;;;;;;;;;;;;;;;;;4872974;29;20014;-86
2022/07/15 09:55:22;;;;;;;;;;;;;;;;;;4862949;29;19934;-86
2022/07/15 09:57:48;;;;;;;;;;;;;;;;;;4850063;28;19938;-87
2022/07/15 10:00:14;;;;;;;;;;;;;;;;;;4872298;29;19935;-86
2022/07/15 10:02:40;;;;;;;;;;;;;;;;;;4878179;29;20336;-87
2022/07/15 10:05:06;;;;;;;;;;;;;;;;;;4850518;29;20518;-86
2022/07/15 10:07:32;;;;;;;;;;;;;;;;;;4884184;29;20024;-86
2022/07/15 10:09:58;;;;;;;;;;;;;;;;;;4886418;29;20390;-88
2022/07/15 10:12:24;;;;;;;;;;;;;;;;;;4870016;29;19938;-88
2022/07/15 10:14:50;;;;;;;;;;;;;;;;;;4860228;29;20477;-88
2022/07/15 10:17:16;;;;;;;;;;;;;;;;;;4874670;29;19934;-88
2022/07/15 10:19:42;;;;;;;;;;;;;;;;;;4887536;29;19931;-89
2022/07/15 10:22:08;;;;;;;;;;;;;;;;;;4882570;29;20420;-86
2022/07/15 10:24:34;;;;;;;;;;;;;;;;;;4877710;29;20219;-87
2022/07/15 10:27:01;;;;;;;;;;;;;;;;;;4870758;29;19930;-87
2022/07/15 10:29:29;;;;;;;;;;;;;;;;;;4874943;29;19999;-86
2022/07/15 10:31:55;;;;;;;;;;;;;;;;;;4870063;29;19943;-86
2022/07/15 10:34:23;;;;;;;;;;;;;;;;;;4893980;29;19931;-88
2022/07/15 10:36:54;;;;;;;;;;;;;;;;;;4887485;29;20235;-88
2022/07/15 10:39:20;;;;;;;;;;;;;;;;;;4886965;29;19931;-88
2022/07/15 10:41:46;;;;;;;;;;;;;;;;;;4881873;29;19923;-88
2022/07/15 10:44:12;;;;;;;;;;;;;;;;;;4878860;29;19941;-88
2022/07/15 10:46:38;;;;;;;;;;;;;;;;;;4871292;29;19943;-90
2022/07/15 10:49:04;;;;;;;;;;;;;;;;;;4846608;29;19927;-88
2022/07/15 10:51:30;;;;;;;;;;;;;;;;;;4861510;29;20037;-89
2022/07/15 10:53:57;;;;;;;;;;;;;;;;;;4850513;29;19938;-89
2022/07/15 10:56:22;;;;;;;;;;;;;;;;;;4858315;29;19967;-88
2022/07/15 10:58:48;;;;;;;;;;;;;;;;;;4865798;29;19931;-89
2022/07/15 11:01:14;;;;;;;;;;;;;;;;;;4858731;29;19970;-89
2022/07/15 11:03:40;;;;;;;;;;;;;;;;;;4869222;29;19948;-89
2022/07/15 11:06:06;;;;;;;;;;;;;;;;;;4851869;29;20682;-89
2022/07/15 11:08:32;;;;;;;;;;;;;;;;;;4852229;29;19942;-89
2022/07/15 11:10:58;;;;;;;;;;;;;;;;;;4847118;29;20025;-89
2022/07/15 11:13:24;;;;;;;;;;;;;;;;;;4859446;29;20038;-88
2022/07/15 11:15:51;;;;;;;;;;;;;;;;;;4835492;29;20290;-88
2022/07/15 11:18:17;;;;;;;;;;;;;;;;;;4840612;29;21840;-87
2022/07/15 11:20:43;;;;;;;;;;;;;;;;;;4855960;29;19931;-87
2022/07/15 11:23:09;;;;;;;;;;;;;;;;;;4847808;29;20371;-88
2022/07/15 11:25:35;;;;;;;;;;;;;;;;;;4837512;29;19987;-87
2022/07/15 11:28:01;;;;;;;;;;;;;;;;;;4848304;29;20005;-88
2022/07/15 11:30:27;;;;;;;;;;;;;;;;;;4855002;29;20386;-88
2022/07/15 11:32:53;;;;;;;;;;;;;;;;;;4831307;29;19967;-88
2022/07/15 11:35:19;;;;;;;;;;;;;;;;;;4849493;29;20596;-89
2022/07/15 11:37:48;;;;;;;;;;;;;;;;;;4830226;29;19946;-88
2022/07/15 11:45:43;;;;;;;;;;;;;;;;;;4845363;29;19932;-88
2022/07/15 11:48:09;;;;;;;;;;;;;;;;;;4827032;29;19962;-87
2022/07/15 11:50:35;;;;;;;;;;;;;;;;;;4846166;29;20063;-87
2022/07/15 11:53:02;;;;;;;;;;;;;;;;;;4846298;29;19927;-88
2022/07/15 11:55:28;;;;;;;;;;;;;;;;;;4847039;29;19932;-88
2022/07/15 11:57:56;;;;;;;;;;;;;;;;;;4842266;29;19923;-88
2022/07/15 12:00:22;;;;;;;;;;;;;;;;;;4832225;29;20411;-88
2022/07/15 12:02:48;;;;;;;;;;;;;;;;;;4835684;29;19927;-87
2022/07/15 12:05:14;;;;;;;;;;;;;;;;;;4828897;29;19973;-88
2022/07/15 12:07:40;;;;;;;;;;;;;;;;;;4834692;29;19935;-86
2022/07/15 12:10:06;;;;;;;;;;;;;;;;;;4857940;29;20191;-86
2022/07/15 12:12:34;;;;;;;;;;;;;;;;;;4846373;29;19928;-85
2022/07/15 12:15:00;;;;;;;;;;;;;;;;;;4860916;29;19942;-86
2022/07/15 12:17:26;;;;;;;;;;;;;;;;;;4854114;29;20006;-86
2022/07/15 12:19:53;;;;;;;;;;;;;;;;;;4881706;29;19931;-86
2022/07/15 12:22:19;;;;;;;;;;;;;;;;;;4851562;29;20018;-86
2022/07/15 12:24:45;;;;;;;;;;;;;;;;;;4852788;29;19923;-85
2022/07/15 12:27:11;;;;;;;;;;;;;;;;;;4868137;29;20260;-86
2022/07/15 12:29:37;;;;;;;;;;;;;;;;;;4853689;29;19937;-86
2022/07/15 12:32:03;;;;;;;;;;;;;;;;;;4849216;29;20022;-85
2022/07/15 12:34:29;;;;;;;;;;;;;;;;;;4875441;29;19971;-86
2022/07/15 12:36:55;;;;;;;;;;;;;;;;;;4870830;29;19931;-85
2022/07/15 12:39:25;;;;;;;;;;;;;;;;;;4857633;29;19931;-86
2022/07/15 12:41:51;;;;;;;;;;;;;;;;;;4888195;29;19950;-85
2022/07/15 12:44:17;;;;;;;;;;;;;;;;;;4855029;29;20001;-86
2022/07/15 12:46:46;;;;;;;;;;;;;;;;;;4876730;29;19939;-86
2022/07/15 12:49:21;;;;;;;;;;;;;;;;;;4854040;29;19927;-85
2022/07/15 12:51:47;;;;;;;;;;;;;;;;;;4879335;29;19995;-85
2022/07/15 12:54:13;;;;;;;;;;;;;;;;;;4882329;29;19923;-86
2022/07/15 12:56:39;;;;;;;;;;;;;;;;;;4880103;29;19994;-85
2022/07/15 12:59:05;;;;;;;;;;;;;;;;;;4876863;29;22620;-85
2022/07/15 13:01:31;;;;;;;;;;;;;;;;;;4884179;29;19923;-86
2022/07/15 13:03:57;;;;;;;;;;;;;;;;;;4887762;29;19931;-86
2022/07/15 13:06:39;;;;;;;;;;;;;;;;;;;;;
2022/07/15 13:09:15;;;;;;;;;;;;;;;;;;4875733;29;19931;-86
2022/07/15 13:11:41;;;;;;;;;;;;;;;;;;4838906;29;20063;-86
2022/07/15 13:14:07;;;;;;;;;;;;;;;;;;4853805;29;19966;-86
2022/07/15 13:16:35;;;;;;;;;;;;;;;;;;4852021;29;20030;-86
2022/07/15 13:19:07;;;;;;;;;;;;;;;;;;4855768;29;20018;-85
2022/07/15 13:21:54;;;;;;;;;;;;;;;;;;4848109;29;19935;-85
2022/07/15 13:24:33;;;;;;;;;;;;;;;;;;;;;
2022/07/15 13:27:26;;;;;;;;;;;;;;;;;;4853354;29;19935;-85
2022/07/15 13:30:02;;;;;;;;;;;;;;;;;;;;;
2022/07/15 13:32:49;;;;;;;;;;;;;;;;;;;;;
2022/07/15 13:38:17;;;;;;;;;;;;;;;;;;;;;
2022/07/15 13:43:42;;;;;;;;;;;;;;;;;;4839079;29;20521;-84
2022/07/15 13:46:14;;;;;;;;;;;;;;;;;;4853976;29;20481;-84
2022/07/15 13:48:42;;;;;;;;;;;;;;;;;;4841274;29;19964;-85
2022/07/15 13:51:24;;;;;;;;;;;;;;;;;;4858722;29;20398;-85
2022/07/15 13:53:50;;;;;;;;;;;;;;;;;;4848026;29;20026;-85
2022/07/15 13:56:16;;;;;;;;;;;;;;;;;;4869475;29;19970;-85
2022/07/15 13:58:42;;;;;;;;;;;;;;;;;;4855374;29;19938;-85
2022/07/15 14:01:08;;;;;;;;;;;;;;;;;;4835259;29;20252;-85
2022/07/15 14:03:34;;;;;;;;;;;;;;;;;;4856830;29;19930;-86
2022/07/15 14:06:00;;;;;;;;;;;;;;;;;;4855527;29;21295;-84
2022/07/15 14:08:26;;;;;;;;;;;;;;;;;;4868790;29;20034;-86
2022/07/15 14:10:52;;;;;;;;;;;;;;;;;;4852851;29;20241;-83
2022/07/15 14:13:18;;;;;;;;;;;;;;;;;;4869931;29;20338;-83
2022/07/15 14:15:44;;;;;;;;;;;;;;;;;;4875281;29;19934;-83
2022/07/15 14:18:12;;;;;;;;;;;;;;;;;;4889490;29;20033;-83
2022/07/15 14:20:41;;;;;;;;;;;;;;;;;;4880672;29;20478;-83
2022/07/15 14:23:07;;;;;;;;;;;;;;;;;;4871162;29;20386;-83
2022/07/15 14:25:33;;;;;;;;;;;;;;;;;;4880544;29;19935;-84
2022/07/15 14:28:27;;;;;;;;;;;;;;;;;;;;;
2022/07/15 14:31:14;;;;;;;;;;;;;;;;;;4891239;29;19942;-85
2022/07/15 14:33:40;;;;;;;;;;;;;;;;;;4858681;29;20496;-87
2022/07/15 14:36:06;;;;;;;;;;;;;;;;;;4864931;29;22626;-85
2022/07/15 14:38:32;;;;;;;;;;;;;;;;;;4864421;29;19927;-85
2022/07/15 14:40:57;;;;;;;;;;;;;;;;;;4867114;29;19978;-82
2022/07/15 14:43:23;;;;;;;;;;;;;;;;;;4888941;29;19927;-84
2022/07/15 14:45:49;;;;;;;;;;;;;;;;;;4890719;29;19931;-84
2022/07/15 14:48:15;;;;;;;;;;;;;;;;;;4880063;29;19987;-85
2022/07/15 14:50:41;;;;;;;;;;;;;;;;;;4874348;29;20028;-86
2022/07/15 14:53:07;;;;;;;;;;;;;;;;;;4882933;29;19934;-85
2022/07/15 14:55:33;;;;;;;;;;;;;;;;;;4873732;29;20609;-85
2022/07/15 14:57:59;;;;;;;;;;;;;;;;;;4851651;29;19938;-85
2022/07/15 15:00:25;;;;;;;;;;;;;;;;;;4867113;29;20057;-86
2022/07/15 15:02:51;;;;;;;;;;;;;;;;;;4863055;29;20404;-85
2022/07/15 15:05:17;;;;;;;;;;;;;;;;;;4865928;29;20258;-85
2022/07/15 15:07:43;;;;;;;;;;;;;;;;;;4865726;29;20082;-85
2022/07/15 15:10:13;;;;;;;;;;;;;;;;;;4859536;29;20073;-85
2022/07/15 15:12:39;;;;;;;;;;;;;;;;;;4858224;29;20407;-85
2022/07/15 15:15:05;;;;;;;;;;;;;;;;;;4858490;29;20014;-85
2022/07/15 15:17:34;;;;;;;;;;;;;;;;;;4846558;29;19934;-85
2022/07/15 15:20:05;;;;;;;;;;;;;;;;;;4857808;29;20370;-86
2022/07/15 15:22:31;;;;;;;;;;;;;;;;;;4857561;29;20463;-86
2022/07/15 15:24:57;;;;;;;;;;;;;;;;;;4855731;29;19947;-85
2022/07/15 15:27:23;;;;;;;;;;;;;;;;;;4847370;29;19985;-85
2022/07/15 15:29:49;;;;;;;;;;;;;;;;;;4858948;29;20558;-85
2022/07/15 15:32:16;;;;;;;;;;;;;;;;;;4871994;29;19977;-85
2022/07/15 15:34:42;;;;;;;;;;;;;;;;;;4858233;29;19935;-85
2022/07/15 15:37:08;;;;;;;;;;;;;;;;;;4857498;29;20358;-85
2022/07/15 15:39:34;;;;;;;;;;;;;;;;;;4867391;29;19993;-85
2022/07/15 15:42:00;;;;;;;;;;;;;;;;;;4861170;29;19941;-83
2022/07/15 15:44:26;;;;;;;;;;;;;;;;;;4877083;29;19934;-85
2022/07/15 15:46:52;;;;;;;;;;;;;;;;;;4844270;29;19931;-85
2022/07/15 15:49:18;;;;;;;;;;;;;;;;;;4850999;29;19952;-84
2022/07/15 15:51:44;;;;;;;;;;;;;;;;;;4868342;29;21572;-84
2022/07/15 15:54:14;;;;;;;;;;;;;;;;;;4858908;29;19938;-86
2022/07/15 15:56:39;;;;;;;;;;;;;;;;;;4880832;29;20022;-85
2022/07/15 15:59:05;;;;;;;;;;;;;;;;;;4854672;29;20735;-85
2022/07/15 16:01:31;;;;;;;;;;;;;;;;;;4863413;29;20034;-87
2022/07/15 16:03:57;;;;;;;;;;;;;;;;;;4869926;29;19923;-85
2022/07/15 16:06:23;;;;;;;;;;;;;;;;;;4863662;29;20081;-85
2022/07/15 16:08:49;;;;;;;;;;;;;;;;;;4858779;29;20093;-86
2022/07/15 16:11:15;;;;;;;;;;;;;;;;;;4859697;29;21033;-85
2022/07/15 16:13:41;;;;;;;;;;;;;;;;;;4840210;29;20659;-86
2022/07/15 16:16:07;;;;;;;;;;;;;;;;;;4838285;29;19927;-86
2022/07/15 16:18:33;;;;;;;;;;;;;;;;;;4850131;29;19985;-85
2022/07/15 16:20:59;;;;;;;;;;;;;;;;;;4866014;29;19930;-86
2022/07/15 16:23:25;;;;;;;;;;;;;;;;;;4850816;29;20004;-85
2022/07/15 16:25:51;;;;;;;;;;;;;;;;;;4862516;29;19935;-85
2022/07/15 16:28:17;;;;;;;;;;;;;;;;;;4866764;29;19927;-85
2022/07/15 16:30:43;;;;;;;;;;;;;;;;;;4868823;29;19923;-84
2022/07/15 16:33:09;;;;;;;;;;;;;;;;;;4847683;29;20698;-85
2022/07/15 16:35:35;;;;;;;;;;;;;;;;;;4880647;29;20238;-85
2022/07/15 16:38:01;;;;;;;;;;;;;;;;;;4863653;29;19961;-85
2022/07/15 16:40:27;;;;;;;;;;;;;;;;;;4852758;29;19931;-85
2022/07/15 16:42:53;;;;;;;;;;;;;;;;;;4860890;29;19929;-85
2022/07/15 16:45:19;;;;;;;;;;;;;;;;;;4863327;29;19983;-86
2022/07/15 16:47:46;;;;;;;;;;;;;;;;;;4872432;29;19931;-85
2022/07/15 16:50:12;;;;;;;;;;;;;;;;;;4890773;29;19950;-85
2022/07/15 16:52:37;;;;;;;;;;;;;;;;;;4867864;29;19927;-85
2022/07/15 16:55:03;;;;;;;;;;;;;;;;;;4864697;29;19931;-85
2022/07/15 16:57:29;;;;;;;;;;;;;;;;;;4847697;29;19927;-85
2022/07/15 16:59:55;;;;;;;;;;;;;;;;;;4844376;29;20347;-85
2022/07/15 17:02:21;;;;;;;;;;;;;;;;;;4861366;29;20282;-85
2022/07/15 17:04:47;;;;;;;;;;;;;;;;;;4862129;29;19969;-86
2022/07/15 17:07:14;;;;;;;;;;;;;;;;;;4869404;29;19962;-86
2022/07/15 17:09:40;;;;;;;;;;;;;;;;;;4861422;29;19931;-86